JP-0077 weather

Tokushima Municipal Helipad
Tokushima, Tokushima Prefecture, Japan

Public forecast

Using degrees Celsius for public forecast. Weather courtesy of forecast.io.

Closest aviation weather report (METAR) to Tokushima Municipal Helipad

Closest report is Tokushima Airport/JMSDF Air Base, 3.7 nm (6.9 km) NE. Retrieved 2019/10/23 08:00 UTC (48 minutes ago):

RJOS 230800Z 04005KT 9999 FEW025 BKN180 BKN200 22/15 Q1015

Closest aviation forecast (TAF) to Tokushima Municipal Helipad

Closest forecast is Takamatsu Airport, 28.3 nm (52.4 km) WNW. Retrieved 2019/10/23 06:30 UTC (2 hours ago):

TAF TAF RJOT 230510Z 2306/2412 15005KT 9999 FEW030 BECMG 2318/2321 4000 -RA BR FEW003 SCT005 BKN008 TEMPO 2321/2403 3000 RA BR FEW001 SCT003 BKN005 BECMG 2400/2403 07012KT TEMPO 2409/2412 3000 RA BR FEW001 SCT003 BKN005